createdAt,value
2018-10-06T00:00:04.155Z,14.68
2018-10-06T00:02:10.281Z,14.71
2018-10-06T00:04:16.362Z,14.75
2018-10-06T00:06:22.602Z,14.76
2018-10-06T00:08:28.707Z,14.78
2018-10-06T00:10:34.914Z,14.79
2018-10-06T00:12:41.045Z,14.80
2018-10-06T00:14:47.156Z,14.83
2018-10-06T00:16:53.317Z,14.86
2018-10-06T00:18:59.450Z,14.83
2018-10-06T00:21:05.625Z,14.77
2018-10-06T00:23:11.825Z,14.69
2018-10-06T00:25:17.984Z,14.65
2018-10-06T00:27:24.851Z,14.64
2018-10-06T00:29:31.024Z,14.66
2018-10-06T00:31:37.143Z,14.66
2018-10-06T00:33:43.278Z,14.70
2018-10-06T00:35:49.438Z,14.69
2018-10-06T00:37:59.081Z,14.67
2018-10-06T00:40:05.213Z,14.63
2018-10-06T00:42:11.343Z,14.55
2018-10-06T00:44:17.484Z,14.46
2018-10-06T00:46:23.574Z,14.34
2018-10-06T00:48:29.724Z,14.25
2018-10-06T00:50:35.848Z,14.22
2018-10-06T00:52:48.686Z,14.21
2018-10-06T00:54:55.137Z,14.17
2018-10-06T00:57:01.264Z,14.14
2018-10-06T00:59:07.457Z,14.14
2018-10-06T01:01:13.588Z,14.17
2018-10-06T01:03:19.695Z,14.15
2018-10-06T01:05:25.797Z,14.23
2018-10-06T01:07:31.922Z,14.24
2018-10-06T01:09:38.011Z,14.24
2018-10-06T01:11:44.161Z,14.21
2018-10-06T01:13:50.272Z,14.18
2018-10-06T01:15:56.452Z,14.14
2018-10-06T01:18:02.528Z,14.14
2018-10-06T01:20:08.654Z,14.18
2018-10-06T01:22:14.729Z,14.24
2018-10-06T01:24:20.795Z,14.29
2018-10-06T01:26:26.867Z,14.27
2018-10-06T01:28:32.971Z,14.20
2018-10-06T01:30:39.056Z,14.11
2018-10-06T01:32:45.264Z,14.04
2018-10-06T01:34:51.358Z,14.00
2018-10-06T01:36:57.426Z,13.92
2018-10-06T01:39:03.795Z,13.89
2018-10-06T01:41:10.101Z,13.92
2018-10-06T01:43:16.552Z,13.97
2018-10-06T01:45:22.609Z,14.02
2018-10-06T01:47:28.711Z,14.03
2018-10-06T01:49:34.762Z,14.07
2018-10-06T01:51:40.850Z,14.10
2018-10-06T01:53:47.143Z,14.13
2018-10-06T01:55:53.227Z,14.12
2018-10-06T01:57:59.239Z,14.07
2018-10-06T02:00:05.432Z,14.01
2018-10-06T02:02:11.500Z,13.95
2018-10-06T02:04:17.637Z,13.89
2018-10-06T02:06:23.755Z,13.80
2018-10-06T02:08:29.845Z,13.73
2018-10-06T02:10:35.943Z,13.68
2018-10-06T02:12:44.708Z,13.57
2018-10-06T02:14:50.889Z,13.48
2018-10-06T02:16:57.027Z,13.43
2018-10-06T02:19:03.140Z,13.44
2018-10-06T02:21:09.308Z,13.41
2018-10-06T02:23:15.463Z,13.43
2018-10-06T02:25:22.147Z,13.48
2018-10-06T02:27:28.291Z,13.51
2018-10-06T02:29:34.383Z,13.53
2018-10-06T02:31:40.542Z,13.57
2018-10-06T02:33:46.799Z,13.55
2018-10-06T02:35:52.920Z,13.51
2018-10-06T02:37:59.008Z,13.48
2018-10-06T02:40:05.148Z,13.48
2018-10-06T02:42:11.305Z,13.48
2018-10-06T02:44:17.431Z,13.46
2018-10-06T02:46:23.551Z,13.40
2018-10-06T02:48:29.662Z,13.37
2018-10-06T02:50:36.289Z,13.31
2018-10-06T02:52:42.399Z,13.27
2018-10-06T02:54:48.511Z,13.23
2018-10-06T02:56:54.666Z,13.22
2018-10-06T02:59:00.761Z,13.23
2018-10-06T03:01:07.810Z,13.30
2018-10-06T03:03:13.908Z,13.38
2018-10-06T03:05:20.004Z,13.47
2018-10-06T03:07:26.111Z,13.55
2018-10-06T03:09:32.222Z,13.62
2018-10-06T03:11:38.299Z,13.65
2018-10-06T03:13:44.741Z,13.66
2018-10-06T03:15:50.848Z,13.62
2018-10-06T03:17:56.992Z,13.63
2018-10-06T03:20:03.099Z,13.59
2018-10-06T03:22:09.177Z,13.58
2018-10-06T03:24:15.286Z,13.58
2018-10-06T03:26:21.409Z,13.52
2018-10-06T03:28:27.513Z,13.47
2018-10-06T03:30:33.604Z,13.40
2018-10-06T03:32:39.677Z,13.33
2018-10-06T03:34:45.845Z,13.27
2018-10-06T03:36:52.043Z,13.21
2018-10-06T03:38:58.617Z,13.15
2018-10-06T03:41:04.668Z,13.12
2018-10-06T03:43:10.886Z,13.08
2018-10-06T03:45:16.943Z,13.05
2018-10-06T03:47:23.127Z,13.05
2018-10-06T03:49:29.257Z,13.05
2018-10-06T03:51:35.453Z,13.06
2018-10-06T03:53:41.618Z,13.08
2018-10-06T03:55:47.699Z,13.08
2018-10-06T03:57:53.804Z,13.08
2018-10-06T03:59:59.945Z,13.08
2018-10-06T04:02:06.015Z,13.08
2018-10-06T04:04:12.123Z,13.08
2018-10-06T04:06:18.272Z,13.07
2018-10-06T04:08:24.445Z,13.06
2018-10-06T04:10:30.534Z,13.03
2018-10-06T04:12:36.585Z,13.00
2018-10-06T04:14:42.706Z,12.96
2018-10-06T04:16:48.900Z,12.94
2018-10-06T04:18:54.947Z,12.90
2018-10-06T04:21:01.124Z,12.91
2018-10-06T04:23:07.319Z,12.92
2018-10-06T04:25:13.445Z,12.95
2018-10-06T04:27:19.532Z,12.99
2018-10-06T04:29:25.562Z,13.04
2018-10-06T04:31:31.900Z,13.09
2018-10-06T04:33:37.993Z,13.09
2018-10-06T04:35:44.157Z,13.08
2018-10-06T04:37:50.278Z,13.06
2018-10-06T04:39:56.602Z,13.02
2018-10-06T04:42:02.747Z,13.05
2018-10-06T04:44:09.983Z,13.06
2018-10-06T04:46:16.119Z,13.02
2018-10-06T04:48:22.181Z,12.99
2018-10-06T04:50:28.297Z,12.96
2018-10-06T04:52:34.705Z,12.91
2018-10-06T04:54:40.773Z,12.90
2018-10-06T04:56:46.892Z,12.90
2018-10-06T04:58:53.077Z,12.93
2018-10-06T05:00:59.214Z,12.94
2018-10-06T05:03:05.332Z,12.95
2018-10-06T05:05:11.421Z,12.96
2018-10-06T05:07:17.543Z,12.94
2018-10-06T05:09:23.755Z,12.93
2018-10-06T05:11:29.809Z,12.92
2018-10-06T05:13:35.958Z,12.94
2018-10-06T05:15:42.054Z,12.96
2018-10-06T05:17:48.130Z,12.97
2018-10-06T05:19:54.301Z,12.98
2018-10-06T05:22:00.398Z,12.97
2018-10-06T05:24:06.563Z,12.96
2018-10-06T05:26:12.716Z,12.94
2018-10-06T05:28:18.817Z,12.93
2018-10-06T05:30:24.920Z,12.93
2018-10-06T05:32:31.041Z,12.90
2018-10-06T05:34:37.804Z,12.85
2018-10-06T05:36:44.008Z,12.82
2018-10-06T05:38:50.154Z,12.80
2018-10-06T05:40:56.284Z,12.83
2018-10-06T05:43:02.403Z,12.85
2018-10-06T05:45:08.499Z,12.84
2018-10-06T05:47:14.709Z,12.86
2018-10-06T05:49:20.850Z,12.86
2018-10-06T05:51:27.243Z,12.86
2018-10-06T05:53:33.440Z,12.84
2018-10-06T05:55:39.582Z,12.81
2018-10-06T05:57:45.712Z,12.81
2018-10-06T05:59:51.861Z,12.83
2018-10-06T06:01:58.050Z,12.85
2018-10-06T06:04:04.167Z,12.88
2018-10-06T06:06:10.280Z,12.92
2018-10-06T06:08:16.488Z,12.95
2018-10-06T06:10:22.615Z,12.99
2018-10-06T06:12:29.444Z,13.01
2018-10-06T06:14:35.613Z,13.04
2018-10-06T06:16:41.826Z,13.08
2018-10-06T06:18:47.971Z,13.13
2018-10-06T06:20:54.068Z,13.20
2018-10-06T06:23:00.177Z,13.26
2018-10-06T06:25:06.392Z,13.34
2018-10-06T06:27:12.533Z,13.39
2018-10-06T06:29:18.663Z,13.43
2018-10-06T06:31:24.862Z,13.48
2018-10-06T06:33:30.981Z,13.55
2018-10-06T06:35:37.080Z,13.61
2018-10-06T06:37:43.225Z,13.65
2018-10-06T06:39:49.295Z,13.65
2018-10-06T06:41:55.441Z,13.68
2018-10-06T06:44:01.620Z,13.71
2018-10-06T06:46:08.087Z,13.75
2018-10-06T06:48:14.245Z,13.80
2018-10-06T06:50:20.374Z,13.83
2018-10-06T06:52:26.537Z,13.87
2018-10-06T06:54:32.672Z,13.89
2018-10-06T06:56:38.847Z,13.92
2018-10-06T06:58:45.048Z,13.98
2018-10-06T07:00:51.228Z,13.99
2018-10-06T07:02:57.823Z,14.03
2018-10-06T07:05:03.983Z,14.07
2018-10-06T07:07:10.073Z,14.13
2018-10-06T07:09:16.184Z,14.23
2018-10-06T07:11:23.328Z,14.30
2018-10-06T07:13:29.572Z,14.38
2018-10-06T07:15:35.736Z,14.47
2018-10-06T07:17:41.872Z,14.53
2018-10-06T07:19:48.045Z,14.61
2018-10-06T07:21:54.198Z,14.67
2018-10-06T07:24:00.341Z,14.76
2018-10-06T07:26:06.530Z,14.82
2018-10-06T07:28:12.660Z,14.92
2018-10-06T07:30:18.788Z,15.01
2018-10-06T07:32:25.012Z,15.10
2018-10-06T07:34:31.146Z,15.19
2018-10-06T07:36:37.294Z,15.28
2018-10-06T07:38:43.387Z,15.37
2018-10-06T07:40:49.565Z,15.45
2018-10-06T07:42:55.681Z,15.55
2018-10-06T07:45:01.907Z,15.62
2018-10-06T07:47:08.000Z,15.71
2018-10-06T07:49:14.155Z,15.81
2018-10-06T07:51:20.332Z,15.92
2018-10-06T07:53:26.465Z,16.03
2018-10-06T07:55:33.218Z,16.12
2018-10-06T07:57:39.446Z,16.21
2018-10-06T07:59:45.678Z,16.29
2018-10-06T08:01:51.833Z,16.37
2018-10-06T08:03:58.018Z,16.44
2018-10-06T08:06:04.228Z,16.53
2018-10-06T08:08:10.418Z,16.61
2018-10-06T08:10:16.547Z,16.69
2018-10-06T08:12:22.669Z,16.77
2018-10-06T08:14:28.896Z,16.85
2018-10-06T08:16:35.204Z,16.92
2018-10-06T08:18:41.416Z,17.00
2018-10-06T08:20:48.188Z,17.07
2018-10-06T08:22:54.251Z,17.16
2018-10-06T08:25:00.491Z,17.22
2018-10-06T08:27:06.850Z,17.29
2018-10-06T08:29:12.992Z,17.35
2018-10-06T08:31:19.167Z,17.42
2018-10-06T08:33:25.310Z,17.49
2018-10-06T08:35:31.487Z,17.56
2018-10-06T08:37:37.576Z,17.63
2018-10-06T08:39:44.023Z,17.69
2018-10-06T08:41:50.237Z,17.77
2018-10-06T08:43:56.424Z,17.86
2018-10-06T08:46:02.640Z,17.92
2018-10-06T08:48:08.858Z,18.00
2018-10-06T08:50:15.106Z,18.07
2018-10-06T08:52:21.657Z,18.14
2018-10-06T08:54:27.816Z,18.23
2018-10-06T08:56:33.999Z,18.30
2018-10-06T08:58:40.121Z,18.36
2018-10-06T09:00:46.275Z,18.41
2018-10-06T09:02:52.509Z,18.45
2018-10-06T09:04:58.602Z,18.48
2018-10-06T09:07:04.883Z,18.51
2018-10-06T09:09:11.055Z,18.54
2018-10-06T09:11:17.211Z,18.58
2018-10-06T09:13:23.358Z,18.63
2018-10-06T09:15:29.567Z,18.67
2018-10-06T09:17:35.750Z,18.72
2018-10-06T09:19:41.886Z,18.77
2018-10-06T09:21:47.993Z,18.80
2018-10-06T09:23:54.195Z,18.84
2018-10-06T09:26:00.391Z,18.88
2018-10-06T09:28:06.950Z,18.90
2018-10-06T09:30:13.076Z,18.94
2018-10-06T09:32:19.212Z,18.98
2018-10-06T09:34:27.223Z,19.00
2018-10-06T09:36:33.410Z,19.02
2018-10-06T09:38:39.493Z,19.06
2018-10-06T09:40:45.608Z,19.10
2018-10-06T09:42:51.717Z,19.14
2018-10-06T09:44:57.801Z,19.19
2018-10-06T09:47:03.925Z,19.23
2018-10-06T09:49:10.042Z,19.29
2018-10-06T09:51:16.267Z,19.35
2018-10-06T09:53:22.477Z,19.40
2018-10-06T09:55:28.611Z,19.49
2018-10-06T09:57:34.705Z,19.58
2018-10-06T09:59:40.837Z,19.66
2018-10-06T10:01:52.274Z,19.75
2018-10-06T10:04:03.501Z,19.84
2018-10-06T10:06:09.613Z,19.93
2018-10-06T10:08:15.857Z,20.01
2018-10-06T10:10:21.921Z,20.10
2018-10-06T10:12:28.762Z,20.19
2018-10-06T10:14:34.953Z,20.28
2018-10-06T10:16:41.080Z,20.36
2018-10-06T10:18:47.275Z,20.44
2018-10-06T10:20:53.418Z,20.53
2018-10-06T10:23:00.114Z,20.59
2018-10-06T10:25:06.556Z,20.69
2018-10-06T10:27:12.691Z,20.78
2018-10-06T10:29:18.819Z,20.86
2018-10-06T10:31:25.211Z,20.93
2018-10-06T10:33:32.930Z,20.98
2018-10-06T10:35:39.081Z,21.04
2018-10-06T10:37:45.240Z,21.09
2018-10-06T10:39:51.400Z,21.14
2018-10-06T10:41:57.480Z,21.19
2018-10-06T10:44:03.725Z,21.24
2018-10-06T10:46:09.974Z,21.28
2018-10-06T10:48:16.368Z,21.33
2018-10-06T10:50:22.529Z,21.40
2018-10-06T10:52:28.787Z,21.46
2018-10-06T10:54:34.969Z,21.54
2018-10-06T10:56:41.091Z,21.63
2018-10-06T10:58:47.254Z,21.74
2018-10-06T11:00:53.472Z,21.84
2018-10-06T11:02:59.552Z,21.94
2018-10-06T11:05:06.073Z,22.05
2018-10-06T11:07:12.225Z,22.15
2018-10-06T11:09:18.451Z,22.24
2018-10-06T11:11:24.639Z,22.36
2018-10-06T11:13:30.754Z,22.46
2018-10-06T11:15:36.879Z,22.56
2018-10-06T11:17:43.086Z,22.66
2018-10-06T11:19:49.229Z,22.72
2018-10-06T11:21:57.047Z,22.75
2018-10-06T11:24:03.876Z,22.80
2018-10-06T11:26:10.036Z,22.83
2018-10-06T11:28:16.129Z,22.86
2018-10-06T11:30:22.218Z,22.88
2018-10-06T11:32:29.126Z,22.90
2018-10-06T11:34:35.227Z,22.92
2018-10-06T11:36:41.366Z,22.98
2018-10-06T11:38:47.497Z,23.03
2018-10-06T11:40:53.701Z,23.09
2018-10-06T11:43:00.007Z,23.15
2018-10-06T11:45:06.269Z,23.21
2018-10-06T11:47:12.590Z,23.29
2018-10-06T11:49:18.758Z,23.34
2018-10-06T11:51:25.145Z,23.39
2018-10-06T11:53:31.330Z,23.43
2018-10-06T11:55:37.444Z,23.47
2018-10-06T11:57:43.731Z,23.50
2018-10-06T11:59:50.035Z,23.53
2018-10-06T12:01:56.199Z,23.55
2018-10-06T12:04:02.325Z,23.58
2018-10-06T12:06:08.499Z,23.61
2018-10-06T12:08:15.276Z,23.64
2018-10-06T12:10:21.451Z,23.66
2018-10-06T12:12:27.767Z,23.67
2018-10-06T12:14:33.923Z,23.70
2018-10-06T12:16:40.122Z,23.72
2018-10-06T12:18:47.107Z,23.75
2018-10-06T12:20:53.286Z,23.77
2018-10-06T12:22:59.408Z,23.80
2018-10-06T12:25:05.674Z,23.82
2018-10-06T12:27:11.900Z,23.85
2018-10-06T12:29:18.158Z,23.87
2018-10-06T12:31:24.351Z,23.89
2018-10-06T12:33:30.483Z,23.91
2018-10-06T12:35:36.612Z,23.93
2018-10-06T12:37:42.861Z,23.95
2018-10-06T12:39:49.031Z,23.97
2018-10-06T12:41:55.146Z,23.98
2018-10-06T12:44:01.264Z,24.00
2018-10-06T12:46:07.432Z,24.00
2018-10-06T12:48:13.655Z,24.03
2018-10-06T12:50:19.936Z,24.04
2018-10-06T12:52:26.052Z,24.05
2018-10-06T12:54:32.176Z,24.07
2018-10-06T12:56:38.469Z,24.08
2018-10-06T12:58:44.601Z,24.10
2018-10-06T13:00:50.788Z,24.11
2018-10-06T13:02:58.086Z,24.11
2018-10-06T13:05:04.197Z,24.12
2018-10-06T13:07:10.402Z,24.13
2018-10-06T13:09:16.757Z,24.13
2018-10-06T13:11:23.684Z,24.15
2018-10-06T13:13:29.901Z,24.17
2018-10-06T13:15:36.309Z,24.18
2018-10-06T13:17:42.522Z,24.19
2018-10-06T13:19:48.670Z,24.20
2018-10-06T13:21:54.829Z,24.21
2018-10-06T13:24:01.015Z,24.24
2018-10-06T13:26:07.268Z,24.25
2018-10-06T13:28:13.544Z,24.28
2018-10-06T13:30:19.688Z,24.31
2018-10-06T13:32:26.263Z,24.34
2018-10-06T13:34:32.546Z,24.36
2018-10-06T13:36:39.141Z,24.37
2018-10-06T13:38:45.539Z,24.40
2018-10-06T13:40:51.660Z,24.41
2018-10-06T13:42:57.857Z,24.42
2018-10-06T13:45:04.112Z,24.42
2018-10-06T13:47:10.291Z,24.42
2018-10-06T13:49:16.484Z,24.42
2018-10-06T13:51:22.670Z,24.44
2018-10-06T13:53:28.873Z,24.45
2018-10-06T13:55:34.970Z,24.45
2018-10-06T13:57:41.122Z,24.47
2018-10-06T13:59:47.433Z,24.48
2018-10-06T14:01:53.542Z,24.51
2018-10-06T14:03:59.934Z,24.52
2018-10-06T14:06:06.856Z,24.52
2018-10-06T14:08:13.149Z,24.54
2018-10-06T14:10:19.394Z,24.55
2018-10-06T14:12:25.493Z,24.56
2018-10-06T14:14:31.751Z,24.58
2018-10-06T14:16:37.904Z,24.58
2018-10-06T14:18:44.108Z,24.60
2018-10-06T14:20:50.273Z,24.61
2018-10-06T14:22:56.434Z,24.60
2018-10-06T14:25:02.653Z,24.60
2018-10-06T14:27:09.515Z,24.61
2018-10-06T14:29:15.650Z,24.61
2018-10-06T14:31:21.953Z,24.60
2018-10-06T14:33:28.100Z,24.59
2018-10-06T14:35:34.322Z,24.58
2018-10-06T14:37:41.552Z,24.58
2018-10-06T14:39:48.051Z,24.56
2018-10-06T14:41:54.264Z,24.56
2018-10-06T14:44:00.707Z,24.55
2018-10-06T14:46:07.350Z,24.53
2018-10-06T14:48:13.472Z,24.53
2018-10-06T14:50:19.809Z,24.51
2018-10-06T14:52:25.946Z,24.50
2018-10-06T14:54:32.316Z,24.51
2018-10-06T14:56:38.573Z,24.50
2018-10-06T14:58:44.637Z,24.50
2018-10-06T15:00:50.767Z,24.48
2018-10-06T15:02:56.954Z,24.48
2018-10-06T15:05:03.259Z,24.47
2018-10-06T15:07:09.407Z,24.47
2018-10-06T15:09:15.548Z,24.45
2018-10-06T15:11:21.705Z,24.44
2018-10-06T15:13:27.952Z,24.42
2018-10-06T15:15:34.080Z,24.41
2018-10-06T15:17:41.545Z,24.40
2018-10-06T15:19:48.110Z,24.39
2018-10-06T15:21:55.078Z,24.37
2018-10-06T15:24:01.801Z,24.38
2018-10-06T15:26:09.444Z,24.38
2018-10-06T15:28:18.245Z,24.37
2018-10-06T15:30:25.110Z,24.36
2018-10-06T15:32:31.793Z,24.33
2018-10-06T15:34:39.561Z,24.32
2018-10-06T15:36:47.476Z,24.31
2018-10-06T15:38:53.569Z,24.29
2018-10-06T15:41:00.116Z,24.27
2018-10-06T15:43:08.009Z,24.24
2018-10-06T15:45:14.498Z,24.23
2018-10-06T15:47:21.661Z,24.22
2018-10-06T15:49:28.261Z,24.21
2018-10-06T15:51:35.927Z,24.19
2018-10-06T15:53:42.623Z,24.18
2018-10-06T15:55:49.408Z,24.19
2018-10-06T15:57:55.549Z,24.17
2018-10-06T16:00:02.088Z,24.18
2018-10-06T16:02:08.389Z,24.17
2018-10-06T16:04:14.562Z,24.14
2018-10-06T16:06:20.742Z,24.11
2018-10-06T16:08:26.899Z,24.08
2018-10-06T16:10:33.144Z,24.06
2018-10-06T16:12:39.294Z,24.04
2018-10-06T16:14:45.498Z,24.00
2018-10-06T16:16:51.714Z,23.96
2018-10-06T16:18:57.835Z,23.92
2018-10-06T16:21:04.316Z,23.88
2018-10-06T16:23:10.491Z,23.81
2018-10-06T16:25:16.643Z,23.74
2018-10-06T16:27:22.891Z,23.67
2018-10-06T16:29:29.523Z,23.59
2018-10-06T16:31:35.696Z,23.52
2018-10-06T16:33:42.654Z,23.46
2018-10-06T16:35:48.910Z,23.41
2018-10-06T16:37:55.007Z,23.38
2018-10-06T16:40:01.178Z,23.34
2018-10-06T16:42:07.455Z,23.30
2018-10-06T16:44:13.645Z,23.26
2018-10-06T16:46:19.759Z,23.23
2018-10-06T16:48:25.888Z,23.19
2018-10-06T16:50:32.136Z,23.17
2018-10-06T16:52:38.344Z,23.14
2018-10-06T16:54:44.479Z,23.13
2018-10-06T16:56:50.675Z,23.10
2018-10-06T16:58:56.884Z,23.07
2018-10-06T17:01:03.079Z,23.02
2018-10-06T17:03:09.380Z,22.97
2018-10-06T17:05:15.535Z,22.94
2018-10-06T17:07:21.736Z,22.88
2018-10-06T17:09:27.923Z,22.84
2018-10-06T17:11:34.160Z,22.80
2018-10-06T17:13:40.343Z,22.80
2018-10-06T17:15:46.455Z,22.77
2018-10-06T17:17:54.536Z,22.72
2018-10-06T17:20:00.754Z,22.65
2018-10-06T17:22:07.657Z,22.60
2018-10-06T17:24:13.895Z,22.57
2018-10-06T17:26:20.003Z,22.52
2018-10-06T17:28:26.118Z,22.50
2018-10-06T17:30:32.311Z,22.44
2018-10-06T17:32:38.485Z,22.39
2018-10-06T17:34:44.735Z,22.34
2018-10-06T17:36:51.176Z,22.25
2018-10-06T17:38:57.448Z,22.18
2018-10-06T17:41:03.669Z,22.10
2018-10-06T17:43:12.550Z,22.03
2018-10-06T17:45:18.653Z,21.94
2018-10-06T17:47:24.893Z,21.88
2018-10-06T17:49:31.062Z,21.78
2018-10-06T17:51:37.311Z,21.71
2018-10-06T17:53:43.535Z,21.67
2018-10-06T17:55:49.663Z,21.65
2018-10-06T17:57:55.805Z,21.67
2018-10-06T18:00:01.989Z,21.69
2018-10-06T18:02:08.371Z,21.73
2018-10-06T18:04:14.689Z,21.76
2018-10-06T18:06:20.899Z,21.79
2018-10-06T18:08:27.080Z,21.79
2018-10-06T18:10:33.501Z,21.79
2018-10-06T18:12:39.744Z,21.77
2018-10-06T18:14:46.026Z,21.75
2018-10-06T18:16:52.415Z,21.68
2018-10-06T18:18:58.644Z,21.61
2018-10-06T18:21:04.937Z,21.53
2018-10-06T18:23:11.137Z,21.45
2018-10-06T18:25:17.351Z,21.36
2018-10-06T18:27:23.665Z,21.27
2018-10-06T18:29:29.917Z,21.21
2018-10-06T18:31:36.090Z,21.18
2018-10-06T18:33:42.288Z,21.16
2018-10-06T18:35:48.456Z,21.16
2018-10-06T18:37:55.197Z,21.16
2018-10-06T18:40:01.416Z,21.18
2018-10-06T18:42:07.626Z,21.21
2018-10-06T18:44:13.901Z,21.22
2018-10-06T18:46:20.339Z,21.22
2018-10-06T18:48:26.541Z,21.21
2018-10-06T18:50:32.755Z,21.22
2018-10-06T18:52:39.015Z,21.22
2018-10-06T18:54:45.200Z,21.23
2018-10-06T18:56:51.415Z,21.23
2018-10-06T18:58:57.648Z,21.16
2018-10-06T19:01:04.279Z,21.07
2018-10-06T19:03:10.553Z,20.96
2018-10-06T19:05:16.806Z,20.84
2018-10-06T19:07:23.032Z,20.75
2018-10-06T19:09:29.255Z,20.69
2018-10-06T19:11:35.801Z,20.67
2018-10-06T19:13:41.946Z,20.69
2018-10-06T19:15:48.799Z,20.70
2018-10-06T19:17:54.929Z,20.67
2018-10-06T19:20:01.074Z,20.62
2018-10-06T19:22:07.370Z,20.55
2018-10-06T19:24:13.445Z,20.51
2018-10-06T19:26:19.654Z,20.51
2018-10-06T19:28:25.885Z,20.52
2018-10-06T19:30:32.064Z,20.53
2018-10-06T19:32:38.263Z,20.54
2018-10-06T19:34:44.528Z,20.56
2018-10-06T19:36:50.894Z,20.46
2018-10-06T19:38:58.836Z,20.38
2018-10-06T19:41:05.078Z,20.35
2018-10-06T19:43:11.325Z,20.35
2018-10-06T19:45:17.576Z,20.37
2018-10-06T19:47:23.739Z,20.30
2018-10-06T19:49:29.914Z,20.22
2018-10-06T19:51:36.192Z,20.16
2018-10-06T19:53:42.376Z,20.15
2018-10-06T19:55:48.644Z,20.16
2018-10-06T19:57:55.382Z,20.19
2018-10-06T20:00:01.760Z,20.13
2018-10-06T20:02:08.134Z,20.01
2018-10-06T20:04:14.493Z,19.91
2018-10-06T20:06:20.602Z,19.87
2018-10-06T20:08:26.767Z,19.84
2018-10-06T20:10:33.436Z,19.76
2018-10-06T20:12:39.826Z,19.76
2018-10-06T20:14:45.975Z,19.76
2018-10-06T20:16:52.215Z,19.77
2018-10-06T20:18:58.471Z,19.75
2018-10-06T20:21:04.672Z,19.70
2018-10-06T20:23:10.808Z,19.69
2018-10-06T20:25:17.021Z,19.70
2018-10-06T20:27:23.230Z,19.70
2018-10-06T20:29:29.404Z,19.63
2018-10-06T20:31:35.659Z,19.55
2018-10-06T20:33:41.857Z,19.52
2018-10-06T20:35:48.059Z,19.54
2018-10-06T20:37:54.287Z,19.54
2018-10-06T20:40:00.523Z,19.52
2018-10-06T20:42:06.846Z,19.52
2018-10-06T20:44:13.080Z,19.53
2018-10-06T20:46:19.488Z,19.56
2018-10-06T20:48:25.620Z,19.54
2018-10-06T20:50:31.776Z,19.52
2018-10-06T20:52:37.962Z,19.53
2018-10-06T20:54:44.253Z,19.56
2018-10-06T20:56:50.429Z,19.55
2018-10-06T20:58:56.659Z,19.51
2018-10-06T21:01:03.185Z,19.44
2018-10-06T21:03:09.439Z,19.36
2018-10-06T21:05:15.696Z,19.30
2018-10-06T21:07:21.957Z,19.25
2018-10-06T21:09:28.138Z,19.21
2018-10-06T21:11:34.430Z,19.19
2018-10-06T21:13:40.543Z,19.14
2018-10-06T21:15:46.765Z,19.13
2018-10-06T21:17:52.893Z,19.13
2018-10-06T21:19:59.081Z,19.12
2018-10-06T21:22:05.274Z,19.10
2018-10-06T21:24:11.523Z,19.08
2018-10-06T21:26:17.718Z,19.04
2018-10-06T21:28:24.097Z,19.00
2018-10-06T21:30:30.227Z,18.95
2018-10-06T21:32:36.570Z,18.89
2018-10-06T21:34:42.720Z,18.87
2018-10-06T21:36:48.924Z,18.81
2018-10-06T21:38:55.413Z,18.79
2018-10-06T21:41:01.547Z,18.76
2018-10-06T21:43:07.776Z,18.73
2018-10-06T21:45:13.896Z,18.70
2018-10-06T21:47:20.044Z,18.67
2018-10-06T21:49:26.263Z,18.67
2018-10-06T21:51:32.438Z,18.65
2018-10-06T21:53:38.505Z,18.60
2018-10-06T21:55:44.675Z,18.54
2018-10-06T21:57:51.472Z,18.49
2018-10-06T21:59:57.605Z,18.44
2018-10-06T22:02:03.821Z,18.39
2018-10-06T22:04:10.075Z,18.35
2018-10-06T22:06:16.370Z,18.30
2018-10-06T22:08:22.612Z,18.26
2018-10-06T22:10:28.789Z,18.21
2018-10-06T22:12:35.003Z,18.16
2018-10-06T22:14:41.200Z,18.10
2018-10-06T22:16:47.522Z,18.09
2018-10-06T22:18:53.660Z,18.06
2018-10-06T22:20:59.857Z,18.05
2018-10-06T22:23:06.207Z,18.04
2018-10-06T22:25:12.352Z,18.05
2018-10-06T22:27:18.588Z,18.05
2018-10-06T22:29:24.858Z,18.05
2018-10-06T22:31:30.946Z,18.06
2018-10-06T22:33:37.133Z,18.05
2018-10-06T22:35:43.248Z,18.00
2018-10-06T22:37:49.400Z,17.94
2018-10-06T22:39:55.523Z,17.88
2018-10-06T22:42:01.726Z,17.85
2018-10-06T22:44:07.908Z,17.86
2018-10-06T22:46:14.059Z,17.87
2018-10-06T22:48:20.275Z,17.87
2018-10-06T22:50:26.460Z,17.85
2018-10-06T22:52:32.592Z,17.82
2018-10-06T22:54:38.779Z,17.78
2018-10-06T22:56:44.988Z,17.72
2018-10-06T22:58:51.105Z,17.66
2018-10-06T23:00:57.269Z,17.59
2018-10-06T23:03:03.428Z,17.55
2018-10-06T23:05:09.535Z,17.55
2018-10-06T23:07:15.699Z,17.56
2018-10-06T23:09:22.661Z,17.59
2018-10-06T23:11:28.781Z,17.60
2018-10-06T23:13:34.933Z,17.57
2018-10-06T23:15:41.049Z,17.51
2018-10-06T23:17:47.257Z,17.45
2018-10-06T23:19:53.409Z,17.38
2018-10-06T23:21:59.577Z,17.32
2018-10-06T23:24:05.716Z,17.27
2018-10-06T23:26:11.867Z,17.25
2018-10-06T23:28:17.924Z,17.21
2018-10-06T23:30:24.271Z,17.17
2018-10-06T23:32:30.454Z,17.10
2018-10-06T23:34:36.623Z,17.06
2018-10-06T23:36:42.680Z,17.00
2018-10-06T23:38:48.796Z,16.97
2018-10-06T23:40:54.929Z,16.93
2018-10-06T23:43:01.063Z,16.92
2018-10-06T23:45:07.328Z,16.92
2018-10-06T23:47:13.487Z,16.92
2018-10-06T23:49:19.690Z,16.90
2018-10-06T23:51:25.824Z,16.84
2018-10-06T23:53:31.970Z,16.78
2018-10-06T23:55:38.106Z,16.73
2018-10-06T23:57:44.246Z,16.70
2018-10-06T23:59:50.347Z,16.69
